Flight Track Log - Related Links

Times and Time Zones

All times are in EDT time to prevent confusion due to time zone crossing. See the TAM3242 flight status page for this flight to view local times or setup timezone preferences in your user account.


Time Position Orientation Groundspeed Altitude Reporting Facility
EDT Latitude Longitude Course Direction KTS MPH feet Rate Location/Type
Mon 07:02:00 AM -20.7701 -47.6135 343° North  Level Estimated
Mon 07:03:00 AM -20.6948 -47.6382 343° North  Level Estimated
Mon 07:04:00 AM -20.6196 -47.6629 343° North  Level Estimated
Mon 07:05:00 AM -20.5443 -47.6875 343° North  Level Estimated
Mon 07:06:00 AM -20.4691 -47.7121 343° North  Level Estimated
Mon 07:07:00 AM -20.3938 -47.7368 343° North  Level Estimated
Mon 07:08:00 AM -20.3186 -47.7613 343° North  Level Estimated
Mon 07:09:00 AM -20.2433 -47.7859 343° North  Level Estimated
Mon 07:10:00 AM -20.1680 -47.8104 343° North  Level Estimated
Mon 07:11:00 AM -20.0928 -47.8349 343° North  Level Estimated
Mon 07:12:00 AM -20.0175 -47.8594 343° North  Level Estimated
Mon 07:13:00 AM -19.9422 -47.8839 343° North  Level Estimated
Mon 07:14:00 AM -19.8669 -47.9083 343° North  Level Estimated
Mon 07:15:00 AM -19.7916 -47.9327 343° North  Level Estimated
Mon 07:16:00 AM -19.7163 -47.9571 343° North  Level Estimated
Mon 07:17:00 AM -19.6410 -47.9815 343° North  Level Estimated
Mon 07:18:00 AM -19.5657 -48.0059 343° North  Level Estimated
Mon 07:19:00 AM -19.4904 -48.0302 343° North  Level Estimated
Mon 07:20:00 AM -19.3956 -48.0608 343° North  Level Estimated
Mon 07:21:00 AM -19.3007 -48.0914 343° North  Level Estimated
Mon 07:22:00 AM -19.2058 -48.1219 343° North  Level Estimated
Mon 07:23:00 AM -19.1109 -48.1524 343° North  Level Estimated
Mon 07:24:00 AM -19.0160 -48.1829 343° North  Level Estimated
Mon 07:25:00 AM -18.9211 -48.2133 343° North  Level Estimated
Mon 07:26:00 AM -18.8828 -48.2256 343° North  Level Estimated
Mon 07:27:00 AM -18.8828 -48.2256 223° Southwest  Level Estimated
Mon 07:28:00 AM -18.8828 -48.2256 223° Southwest  Level Estimated
Mon 07:29:00 AM -18.8828 -48.2256 223° Southwest  Level Estimated
Mon 07:30:00 AM -18.8828 -48.2256 223° Southwest  Level Estimated

Login

Don't have an account? Register now (free) for customized features, flight alerts, and more!